createdAt,value
2022-08-19T00:00:18.141Z,69.01
2022-08-19T00:03:09.885Z,69.27
2022-08-19T00:05:51.819Z,69.61
2022-08-19T00:08:28.321Z,69.55
2022-08-19T00:11:07.534Z,69.63
2022-08-19T00:13:48.070Z,69.46
2022-08-19T00:16:26.877Z,69.23
2022-08-19T00:19:03.521Z,69.94
2022-08-19T00:21:44.031Z,70.29
2022-08-19T00:24:17.077Z,69.69
2022-08-19T00:26:54.431Z,69.78
2022-08-19T00:29:31.135Z,72.00
2022-08-19T00:32:10.879Z,71.21
2022-08-19T00:34:49.599Z,71.84
2022-08-19T00:37:31.432Z,72.26
2022-08-19T00:40:11.163Z,73.10
2022-08-19T00:42:51.121Z,72.74
2022-08-19T00:45:32.593Z,72.70
2022-08-19T00:48:17.524Z,72.29
2022-08-19T00:50:56.990Z,71.94
2022-08-19T00:53:34.782Z,72.02
2022-08-19T00:56:12.514Z,71.91
2022-08-19T00:58:52.350Z,72.15
2022-08-19T01:01:29.315Z,72.28
2022-08-19T01:04:07.809Z,72.13
2022-08-19T01:06:45.451Z,72.05
2022-08-19T01:09:21.438Z,72.18
2022-08-19T01:11:57.172Z,72.17
2022-08-19T01:14:37.393Z,72.01
2022-08-19T01:17:15.421Z,71.98
2022-08-19T01:19:54.771Z,72.07
2022-08-19T01:22:57.530Z,72.08
2022-08-19T01:25:58.331Z,72.30
2022-08-19T01:28:40.051Z,72.37
2022-08-19T01:31:28.038Z,72.25
2022-08-19T01:34:06.141Z,72.32
2022-08-19T01:36:46.188Z,72.27
2022-08-19T01:39:28.970Z,72.19
2022-08-19T01:42:09.405Z,72.65
2022-08-19T01:44:43.356Z,73.18
2022-08-19T01:47:21.856Z,73.27
2022-08-19T01:50:00.572Z,73.26
2022-08-19T01:52:41.340Z,73.91
2022-08-19T01:55:24.093Z,75.08
2022-08-19T01:58:07.570Z,74.52
2022-08-19T02:00:44.607Z,74.54
2022-08-19T02:03:25.430Z,73.95
2022-08-19T02:06:03.328Z,74.31
2022-08-19T02:08:44.932Z,74.46
2022-08-19T02:11:36.577Z,74.90
2022-08-19T02:14:18.873Z,75.41
2022-08-19T02:16:57.366Z,75.95
2022-08-19T02:19:42.025Z,76.06
2022-08-19T02:22:18.654Z,75.79
2022-08-19T02:24:58.885Z,75.71
2022-08-19T02:27:37.148Z,75.47
2022-08-19T02:30:22.455Z,75.27
2022-08-19T02:32:59.966Z,75.40
2022-08-19T02:35:40.676Z,75.11
2022-08-19T02:38:30.239Z,75.83
2022-08-19T02:41:14.169Z,75.51
2022-08-19T02:44:26.579Z,76.87
2022-08-19T02:46:56.909Z,76.48
2022-08-19T02:49:36.477Z,76.88
2022-08-19T02:52:17.448Z,76.75
2022-08-19T02:54:56.005Z,76.69
2022-08-19T02:57:38.886Z,76.90
2022-08-19T03:00:19.550Z,77.87
2022-08-19T03:02:57.578Z,78.62
2022-08-19T03:05:55.644Z,78.39
2022-08-19T03:08:35.189Z,78.35
2022-08-19T03:11:25.756Z,77.63
2022-08-19T03:14:06.606Z,77.45
2022-08-19T03:16:51.364Z,78.07
2022-08-19T03:19:30.137Z,78.46
2022-08-19T03:22:05.724Z,78.58
2022-08-19T03:24:46.009Z,78.57
2022-08-19T03:27:24.317Z,78.19
2022-08-19T03:30:11.676Z,78.43
2022-08-19T03:32:56.906Z,79.71
2022-08-19T03:35:34.590Z,79.06
2022-08-19T03:38:12.651Z,78.76
2022-08-19T03:40:52.410Z,78.31
2022-08-19T03:43:30.158Z,78.09
2022-08-19T03:46:13.692Z,78.38
2022-08-19T03:48:52.416Z,77.86
2022-08-19T03:51:34.423Z,77.84
2022-08-19T03:54:16.177Z,77.73
2022-08-19T03:56:55.646Z,77.79
2022-08-19T03:59:35.651Z,77.70
2022-08-19T04:02:14.054Z,77.75
2022-08-19T04:04:52.799Z,77.79
2022-08-19T04:07:31.710Z,78.01
2022-08-19T04:10:11.358Z,77.71
2022-08-19T04:12:49.107Z,77.57
2022-08-19T04:15:27.806Z,77.50
2022-08-19T04:18:07.614Z,77.75
2022-08-19T04:20:48.253Z,77.48
2022-08-19T04:23:28.085Z,77.14
2022-08-19T04:26:07.715Z,76.78
2022-08-19T04:28:54.571Z,76.51
2022-08-19T04:31:35.233Z,76.11
2022-08-19T04:34:22.166Z,75.99
2022-08-19T04:37:02.683Z,75.53
2022-08-19T04:40:02.246Z,75.01
2022-08-19T04:42:42.212Z,74.49
2022-08-19T04:45:19.941Z,73.98
2022-08-19T04:48:26.373Z,73.44
2022-08-19T04:51:03.474Z,72.78
2022-08-19T04:53:40.067Z,72.14
2022-08-19T04:56:19.841Z,71.74
2022-08-19T04:58:57.677Z,71.19
2022-08-19T05:01:35.331Z,70.58
2022-08-19T05:04:13.762Z,69.84
2022-08-19T05:06:53.665Z,69.42
2022-08-19T05:09:56.642Z,68.74
2022-08-19T05:12:38.283Z,68.25
2022-08-19T05:15:19.462Z,67.91
2022-08-19T05:18:17.328Z,67.25
2022-08-19T05:21:17.137Z,66.59
2022-08-19T05:23:56.693Z,65.95
2022-08-19T05:26:32.349Z,65.35
2022-08-19T05:29:12.792Z,64.46
2022-08-19T05:31:52.253Z,63.30
2022-08-19T05:34:34.100Z,61.96
2022-08-19T05:37:10.401Z,61.30
2022-08-19T05:39:51.587Z,60.54
2022-08-19T05:42:30.626Z,59.97
2022-08-19T05:45:11.202Z,59.49
2022-08-19T05:47:49.664Z,58.50
2022-08-19T05:50:27.405Z,58.05
2022-08-19T05:53:07.870Z,57.29
2022-08-19T05:55:47.501Z,56.80
2022-08-19T05:58:28.070Z,56.06
2022-08-19T06:01:11.933Z,55.11
2022-08-19T06:03:51.262Z,54.69
2022-08-19T06:06:34.000Z,53.90
2022-08-19T06:09:14.044Z,52.63
2022-08-19T06:12:03.612Z,52.12
2022-08-19T06:14:41.952Z,50.52
2022-08-19T06:17:18.654Z,51.24
2022-08-19T06:19:55.761Z,50.45
2022-08-19T06:22:33.808Z,50.33
2022-08-19T06:25:13.021Z,49.88
2022-08-19T06:28:14.117Z,49.20
2022-08-19T06:30:51.285Z,47.95
2022-08-19T06:33:30.558Z,46.99
2022-08-19T06:36:09.964Z,45.81
2022-08-19T06:38:50.517Z,45.69
2022-08-19T06:41:25.803Z,46.39
2022-08-19T06:44:08.562Z,45.86
2022-08-19T06:46:53.550Z,45.51
2022-08-19T06:49:37.849Z,44.64
2022-08-19T06:52:16.734Z,44.01
2022-08-19T06:54:57.044Z,43.40
2022-08-19T06:57:36.702Z,42.89
2022-08-19T07:00:19.255Z,42.93
2022-08-19T07:03:04.573Z,42.96
2022-08-19T07:05:52.989Z,42.54
2022-08-19T07:08:29.811Z,41.49
2022-08-19T07:11:14.009Z,41.84
2022-08-19T07:13:52.317Z,40.96
2022-08-19T07:16:37.327Z,39.99
2022-08-19T07:19:16.027Z,40.73
2022-08-19T07:21:55.854Z,41.02
2022-08-19T07:24:33.703Z,40.39
2022-08-19T07:27:15.391Z,39.91
2022-08-19T07:29:54.518Z,38.19
2022-08-19T07:32:35.526Z,38.04
2022-08-19T07:35:13.693Z,37.71
2022-08-19T07:37:53.301Z,37.24
2022-08-19T07:40:29.502Z,36.87
2022-08-19T07:43:11.203Z,36.95
2022-08-19T07:45:54.436Z,36.68
2022-08-19T07:48:35.865Z,37.02
2022-08-19T07:51:15.445Z,37.39
2022-08-19T07:54:15.905Z,36.73
2022-08-19T07:56:54.013Z,36.02
2022-08-19T07:59:34.937Z,35.10
2022-08-19T08:02:11.972Z,35.50
2022-08-19T08:05:08.572Z,34.98
2022-08-19T08:08:01.974Z,34.74
2022-08-19T08:10:38.481Z,34.64
2022-08-19T08:13:14.687Z,34.19
2022-08-19T08:15:56.282Z,33.48
2022-08-19T08:18:33.468Z,33.17
2022-08-19T08:21:15.104Z,33.39
2022-08-19T08:23:56.072Z,33.28
2022-08-19T08:26:31.005Z,33.24
2022-08-19T08:29:13.186Z,33.54
2022-08-19T08:31:59.847Z,32.54
2022-08-19T08:34:36.342Z,32.90
2022-08-19T08:37:16.159Z,32.15
2022-08-19T08:39:51.100Z,31.42
2022-08-19T08:42:40.851Z,31.60
2022-08-19T08:45:20.797Z,32.38
2022-08-19T08:48:07.356Z,31.97
2022-08-19T08:51:05.828Z,32.00
2022-08-19T08:53:46.622Z,31.00
2022-08-19T08:56:24.855Z,31.39
2022-08-19T08:59:29.876Z,31.85
2022-08-19T09:02:06.696Z,31.86
2022-08-19T09:04:50.949Z,30.67
2022-08-19T09:07:38.024Z,30.93
2022-08-19T09:10:43.951Z,31.08
2022-08-19T09:13:42.242Z,31.82
2022-08-19T09:16:28.868Z,32.24
2022-08-19T09:19:10.333Z,31.92
2022-08-19T09:21:50.592Z,31.13
2022-08-19T09:24:25.046Z,30.24
2022-08-19T09:27:18.687Z,30.30
2022-08-19T09:29:55.745Z,29.48
2022-08-19T09:32:34.409Z,28.96
2022-08-19T09:35:12.805Z,29.07
2022-08-19T09:37:57.736Z,28.49
2022-08-19T09:40:39.441Z,28.42
2022-08-19T09:43:32.966Z,27.63
2022-08-19T09:46:11.137Z,27.65
2022-08-19T09:48:51.613Z,28.20
2022-08-19T09:51:31.157Z,29.79
2022-08-19T09:54:11.334Z,29.51
2022-08-19T09:56:48.920Z,28.94
2022-08-19T09:59:31.605Z,28.92
2022-08-19T10:02:10.690Z,28.35
2022-08-19T10:05:08.894Z,28.26
2022-08-19T10:07:48.291Z,28.52
2022-08-19T10:10:30.928Z,28.31
2022-08-19T10:13:10.046Z,27.85
2022-08-19T10:15:50.629Z,27.27
2022-08-19T10:18:32.899Z,26.28
2022-08-19T10:21:23.656Z,27.31
2022-08-19T10:24:04.574Z,27.17
2022-08-19T10:26:47.198Z,26.87
2022-08-19T10:29:32.991Z,26.47
2022-08-19T10:32:12.947Z,26.39
2022-08-19T10:34:50.470Z,25.65
2022-08-19T10:37:56.720Z,25.87
2022-08-19T10:40:34.076Z,27.01
2022-08-19T10:43:12.315Z,27.17
2022-08-19T10:45:55.733Z,27.46
2022-08-19T10:48:35.069Z,25.91
2022-08-19T10:51:29.366Z,25.53
2022-08-19T10:54:12.592Z,25.16
2022-08-19T10:56:55.051Z,25.50
2022-08-19T10:59:36.259Z,24.52
2022-08-19T11:02:18.653Z,25.21
2022-08-19T11:05:12.694Z,25.67
2022-08-19T11:07:55.630Z,25.16
2022-08-19T11:10:40.025Z,25.21
2022-08-19T11:13:19.209Z,25.40
2022-08-19T11:16:24.715Z,25.15
2022-08-19T11:19:04.003Z,23.77
2022-08-19T11:21:47.358Z,23.86
2022-08-19T11:24:28.703Z,23.98
2022-08-19T11:27:11.233Z,24.23
2022-08-19T11:29:49.626Z,23.83
2022-08-19T11:32:27.832Z,24.06
2022-08-19T11:35:06.049Z,24.37
2022-08-19T11:37:45.406Z,25.16
2022-08-19T11:40:22.754Z,25.60
2022-08-19T11:43:04.279Z,23.61
2022-08-19T11:45:40.414Z,23.59
2022-08-19T11:48:19.856Z,24.29
2022-08-19T11:51:00.098Z,24.01
2022-08-19T11:53:40.563Z,24.13
2022-08-19T11:56:17.757Z,23.69
2022-08-19T11:58:58.308Z,24.83
2022-08-19T12:01:35.453Z,22.42
2022-08-19T12:04:15.643Z,22.06
2022-08-19T12:06:55.072Z,23.87
2022-08-19T12:09:37.405Z,24.09
2022-08-19T12:12:17.695Z,24.12
2022-08-19T12:15:00.038Z,23.76
2022-08-19T12:17:36.285Z,23.65
2022-08-19T12:20:18.105Z,22.72
2022-08-19T12:22:55.980Z,23.36
2022-08-19T12:25:35.263Z,23.76
2022-08-19T12:28:14.556Z,24.40
2022-08-19T12:30:52.961Z,23.29
2022-08-19T12:33:33.631Z,23.37
2022-08-19T12:36:12.736Z,23.44
2022-08-19T12:38:48.767Z,22.84
2022-08-19T12:41:28.336Z,22.31
2022-08-19T12:44:05.374Z,21.51
2022-08-19T12:46:43.681Z,21.52
2022-08-19T12:49:52.048Z,21.40
2022-08-19T12:52:24.534Z,20.05
2022-08-19T12:55:02.621Z,20.10
2022-08-19T12:57:45.358Z,20.71
2022-08-19T13:00:25.185Z,21.56
2022-08-19T13:03:06.572Z,20.59
2022-08-19T13:05:44.859Z,20.37
2022-08-19T13:08:24.265Z,20.37
2022-08-19T13:11:16.485Z,21.86
2022-08-19T13:13:58.489Z,21.84
2022-08-19T13:16:33.222Z,21.44
2022-08-19T13:19:11.489Z,20.77
2022-08-19T13:21:49.598Z,21.24
2022-08-19T13:24:33.490Z,20.72
2022-08-19T13:27:14.474Z,20.57
2022-08-19T13:30:13.592Z,20.57
2022-08-19T13:33:09.918Z,21.29
2022-08-19T13:35:57.346Z,20.35
2022-08-19T13:38:37.035Z,21.06
2022-08-19T13:41:20.010Z,20.77
2022-08-19T13:44:00.255Z,20.91
2022-08-19T13:46:39.708Z,21.12
2022-08-19T13:49:19.427Z,21.88
2022-08-19T13:52:02.535Z,22.82
2022-08-19T13:54:40.668Z,22.44
2022-08-19T13:57:21.021Z,22.54
2022-08-19T13:59:58.401Z,21.99
2022-08-19T14:02:38.835Z,22.06
2022-08-19T14:05:19.101Z,22.15
2022-08-19T14:07:58.726Z,22.37
2022-08-19T14:10:36.085Z,21.94
2022-08-19T14:13:13.442Z,22.30
2022-08-19T14:15:49.098Z,21.50
2022-08-19T14:18:24.829Z,21.77
2022-08-19T14:21:03.313Z,21.59
2022-08-19T14:23:41.501Z,21.32
2022-08-19T14:26:21.823Z,21.23
2022-08-19T14:29:02.261Z,21.05
2022-08-19T14:31:42.500Z,20.32
2022-08-19T14:34:21.136Z,20.40
2022-08-19T14:37:01.149Z,20.63
2022-08-19T14:39:40.795Z,20.59
2022-08-19T14:42:17.270Z,20.69
2022-08-19T14:45:01.365Z,19.88
2022-08-19T14:47:39.770Z,19.33
2022-08-19T14:50:20.119Z,19.66
2022-08-19T14:53:08.100Z,19.07
2022-08-19T14:55:52.596Z,18.83
2022-08-19T14:58:35.436Z,18.82
2022-08-19T15:01:12.061Z,18.32
2022-08-19T15:03:49.437Z,18.85
2022-08-19T15:06:32.986Z,18.71
2022-08-19T15:09:12.094Z,18.45
2022-08-19T15:11:51.533Z,18.05
2022-08-19T15:14:31.773Z,18.30
2022-08-19T15:17:16.322Z,17.71
2022-08-19T15:19:52.906Z,17.85
2022-08-19T15:22:34.784Z,17.78
2022-08-19T15:25:19.231Z,17.69
2022-08-19T15:27:59.677Z,17.14
2022-08-19T15:30:38.878Z,17.77
2022-08-19T15:33:21.293Z,17.78
2022-08-19T15:35:58.532Z,17.56
2022-08-19T15:38:42.082Z,17.63
2022-08-19T15:41:27.230Z,17.67
2022-08-19T15:44:08.663Z,17.57
2022-08-19T15:46:46.915Z,17.80
2022-08-19T15:49:25.278Z,17.91
2022-08-19T15:52:04.606Z,18.26
2022-08-19T15:54:43.227Z,18.20
2022-08-19T15:57:24.738Z,18.28
2022-08-19T16:00:20.565Z,18.61
2022-08-19T16:03:15.259Z,19.31
2022-08-19T16:06:10.078Z,20.28
2022-08-19T16:08:49.517Z,20.80
2022-08-19T16:11:31.519Z,21.51
2022-08-19T16:14:11.772Z,21.94
2022-08-19T16:16:54.007Z,22.61
2022-08-19T16:19:31.458Z,23.28
2022-08-19T16:22:15.145Z,23.90
2022-08-19T16:24:51.359Z,24.48
2022-08-19T16:27:27.775Z,25.04
2022-08-19T16:30:07.137Z,25.66
2022-08-19T16:32:47.897Z,26.28
2022-08-19T16:35:24.245Z,26.80
2022-08-19T16:38:01.500Z,27.68
2022-08-19T16:40:46.247Z,27.96
2022-08-19T16:43:24.488Z,28.35
2022-08-19T16:46:00.833Z,28.95
2022-08-19T16:48:46.380Z,29.14
2022-08-19T16:51:25.693Z,29.48
2022-08-19T16:54:07.388Z,29.89
2022-08-19T16:56:43.615Z,30.28
2022-08-19T16:59:25.171Z,30.83
2022-08-19T17:02:02.781Z,31.56
2022-08-19T17:04:42.447Z,32.48
2022-08-19T17:07:19.455Z,32.02
2022-08-19T17:10:01.382Z,32.66
2022-08-19T17:12:39.548Z,33.18
2022-08-19T17:15:19.961Z,33.50
2022-08-19T17:17:58.597Z,33.61
2022-08-19T17:20:39.284Z,34.66
2022-08-19T17:23:16.222Z,35.31
2022-08-19T17:25:55.054Z,35.10
2022-08-19T17:28:33.182Z,35.54
2022-08-19T17:31:12.968Z,35.80
2022-08-19T17:33:52.259Z,36.36
2022-08-19T17:36:34.056Z,36.65
2022-08-19T17:39:13.473Z,37.04
2022-08-19T17:41:53.878Z,37.42
2022-08-19T17:44:32.285Z,37.45
2022-08-19T17:47:12.859Z,38.14
2022-08-19T17:49:51.294Z,38.36
2022-08-19T17:52:31.061Z,39.05
2022-08-19T17:55:10.338Z,39.42
2022-08-19T17:57:51.017Z,40.01
2022-08-19T18:00:29.373Z,40.19
2022-08-19T18:03:08.927Z,40.66
2022-08-19T18:05:46.995Z,41.02
2022-08-19T18:08:26.072Z,41.38
2022-08-19T18:11:02.526Z,41.99
2022-08-19T18:13:41.293Z,41.68
2022-08-19T18:16:20.573Z,42.63
2022-08-19T18:19:02.612Z,43.01
2022-08-19T18:21:39.678Z,43.11
2022-08-19T18:24:19.408Z,43.32
2022-08-19T18:26:58.060Z,43.66
2022-08-19T18:29:40.382Z,43.65
2022-08-19T18:32:23.950Z,44.20
2022-08-19T18:35:05.723Z,44.45
2022-08-19T18:37:44.095Z,44.37
2022-08-19T18:40:57.869Z,44.92
2022-08-19T18:43:51.685Z,46.01
2022-08-19T18:46:47.920Z,46.44
2022-08-19T18:49:35.613Z,46.57
2022-08-19T18:52:16.218Z,46.46
2022-08-19T18:54:55.038Z,47.09
2022-08-19T18:57:35.362Z,47.44
2022-08-19T19:00:15.904Z,48.73
2022-08-19T19:02:57.007Z,49.96
2022-08-19T19:05:36.126Z,50.64
2022-08-19T19:08:14.982Z,50.47
2022-08-19T19:10:54.412Z,51.61
2022-08-19T19:13:36.929Z,51.38
2022-08-19T19:16:15.517Z,52.64
2022-08-19T19:18:56.226Z,52.95
2022-08-19T19:21:34.731Z,52.29
2022-08-19T19:24:16.186Z,51.95
2022-08-19T19:26:52.926Z,52.33
2022-08-19T19:29:32.732Z,53.04
2022-08-19T19:32:21.086Z,52.11
2022-08-19T19:34:59.957Z,51.83
2022-08-19T19:37:35.022Z,51.60
2022-08-19T19:40:22.899Z,51.77
2022-08-19T19:42:59.581Z,52.47
2022-08-19T19:45:38.209Z,52.96
2022-08-19T19:48:18.917Z,52.81
2022-08-19T19:50:58.878Z,53.18
2022-08-19T19:53:39.009Z,53.04
2022-08-19T19:56:19.752Z,54.09
2022-08-19T19:58:58.270Z,54.17
2022-08-19T20:01:37.057Z,54.04
2022-08-19T20:04:20.508Z,54.17
2022-08-19T20:06:58.229Z,53.96
2022-08-19T20:09:58.315Z,53.68
2022-08-19T20:12:40.682Z,54.09
2022-08-19T20:15:16.240Z,54.61
2022-08-19T20:17:55.017Z,53.97
2022-08-19T20:20:32.352Z,54.62
2022-08-19T20:23:18.167Z,55.04
2022-08-19T20:25:56.639Z,56.03
2022-08-19T20:28:37.524Z,55.38
2022-08-19T20:31:19.158Z,55.09
2022-08-19T20:33:58.630Z,54.82
2022-08-19T20:36:38.172Z,54.79
2022-08-19T20:39:19.017Z,55.46
2022-08-19T20:41:56.658Z,55.17
2022-08-19T20:44:40.565Z,55.22
2022-08-19T20:47:17.760Z,54.94
2022-08-19T20:49:56.473Z,56.24
2022-08-19T20:52:32.004Z,56.11
2022-08-19T20:55:14.866Z,56.80
2022-08-19T20:57:54.531Z,57.28
2022-08-19T21:00:36.058Z,57.86
2022-08-19T21:03:20.614Z,57.62
2022-08-19T21:06:00.252Z,58.14
2022-08-19T21:08:38.912Z,58.34
2022-08-19T21:11:20.874Z,58.40
2022-08-19T21:14:00.129Z,58.34
2022-08-19T21:16:41.718Z,58.54
2022-08-19T21:19:23.749Z,57.98
2022-08-19T21:22:01.182Z,57.84
2022-08-19T21:24:38.815Z,58.13
2022-08-19T21:27:20.944Z,58.54
2022-08-19T21:29:58.141Z,58.93
2022-08-19T21:32:38.965Z,58.83
2022-08-19T21:35:15.661Z,58.24
2022-08-19T21:37:55.353Z,59.91
2022-08-19T21:40:34.749Z,61.03
2022-08-19T21:43:12.383Z,58.83
2022-08-19T21:45:51.096Z,59.54
2022-08-19T21:48:29.925Z,59.30
2022-08-19T21:51:09.406Z,60.77
2022-08-19T21:53:50.198Z,59.99
2022-08-19T21:56:28.733Z,60.02
2022-08-19T21:59:10.592Z,59.67
2022-08-19T22:01:50.617Z,59.63
2022-08-19T22:04:32.853Z,60.53
2022-08-19T22:07:12.651Z,61.08
2022-08-19T22:09:54.323Z,60.94
2022-08-19T22:12:35.805Z,61.28
2022-08-19T22:15:20.967Z,61.15
2022-08-19T22:17:57.543Z,61.60
2022-08-19T22:20:36.893Z,60.98
2022-08-19T22:23:18.501Z,61.02
2022-08-19T22:25:58.244Z,60.59
2022-08-19T22:28:33.420Z,60.84
2022-08-19T22:31:15.970Z,60.57
2022-08-19T22:33:52.159Z,60.35
2022-08-19T22:36:29.821Z,60.34
2022-08-19T22:39:07.455Z,60.39
2022-08-19T22:41:48.980Z,60.30
2022-08-19T22:44:23.881Z,60.66
2022-08-19T22:47:04.155Z,60.78
2022-08-19T22:49:41.119Z,61.18
2022-08-19T22:52:22.909Z,61.36
2022-08-19T22:55:04.479Z,62.06
2022-08-19T22:57:44.268Z,61.94
2022-08-19T23:00:25.916Z,61.72
2022-08-19T23:03:06.711Z,61.86
2022-08-19T23:05:43.233Z,61.83
2022-08-19T23:08:25.358Z,62.12
2022-08-19T23:11:01.535Z,61.94
2022-08-19T23:13:41.702Z,61.74
2022-08-19T23:16:19.936Z,61.80
2022-08-19T23:18:59.670Z,61.65
2022-08-19T23:21:35.294Z,61.76
2022-08-19T23:24:14.012Z,62.00
2022-08-19T23:27:14.783Z,61.91
2022-08-19T23:30:13.978Z,62.10
2022-08-19T23:32:51.451Z,63.09
2022-08-19T23:35:29.973Z,63.24
2022-08-19T23:38:11.681Z,63.77
2022-08-19T23:40:51.509Z,64.45
2022-08-19T23:43:28.960Z,63.80
2022-08-19T23:46:10.841Z,63.65
2022-08-19T23:48:47.358Z,63.68
2022-08-19T23:51:28.319Z,64.01
2022-08-19T23:54:08.766Z,64.40
2022-08-19T23:56:49.714Z,63.88
2022-08-19T23:59:27.419Z,63.83
